createdAt,value
2023-05-27T00:01:14.049Z,9.40
2023-05-27T00:03:43.990Z,9.30
2023-05-27T00:06:13.628Z,9.30
2023-05-27T00:08:43.046Z,9.20
2023-05-27T00:11:12.550Z,9.20
2023-05-27T00:13:42.056Z,9.20
2023-05-27T00:16:12.308Z,9.20
2023-05-27T00:18:41.853Z,9.10
2023-05-27T00:21:11.414Z,9.10
2023-05-27T00:23:40.836Z,9.10
2023-05-27T00:26:10.285Z,9.00
2023-05-27T00:28:40.323Z,9.00
2023-05-27T00:31:09.876Z,9.00
2023-05-27T00:33:40.319Z,9.00
2023-05-27T00:36:09.919Z,8.90
2023-05-27T00:38:39.384Z,8.90
2023-05-27T00:41:11.299Z,8.80
2023-05-27T00:43:41.242Z,8.80
2023-05-27T00:46:11.096Z,8.80
2023-05-27T00:48:40.839Z,8.80
2023-05-27T00:51:10.633Z,8.80
2023-05-27T00:53:42.470Z,8.70
2023-05-27T00:56:14.001Z,8.70
2023-05-27T00:58:44.991Z,8.70
2023-05-27T01:01:14.843Z,8.70
2023-05-27T01:03:44.637Z,8.70
2023-05-27T01:06:31.548Z,8.70
2023-05-27T01:09:13.179Z,8.70
2023-05-27T01:12:12.461Z,8.60
2023-05-27T01:14:44.937Z,8.60
2023-05-27T01:17:17.160Z,8.60
2023-05-27T01:19:47.508Z,8.50
2023-05-27T01:22:17.072Z,8.50
2023-05-27T01:24:47.225Z,8.50
2023-05-27T01:27:16.840Z,8.50
2023-05-27T01:29:46.565Z,8.40
2023-05-27T01:32:48.127Z,8.50
2023-05-27T01:35:35.350Z,8.40
2023-05-27T01:38:07.903Z,8.40
2023-05-27T01:40:39.631Z,8.40
2023-05-27T01:43:11.266Z,8.30
2023-05-27T01:45:43.776Z,8.30
2023-05-27T01:48:13.508Z,8.20
2023-05-27T01:50:43.225Z,8.20
2023-05-27T01:53:14.186Z,8.10
2023-05-27T01:55:44.086Z,8.20
2023-05-27T01:58:14.606Z,8.10
2023-05-27T02:00:44.175Z,8.10
2023-05-27T02:03:13.801Z,8.10
2023-05-27T02:05:43.984Z,8.00
2023-05-27T02:08:13.534Z,8.00
2023-05-27T02:10:43.371Z,7.90
2023-05-27T02:13:12.842Z,7.90
2023-05-27T02:15:44.075Z,7.90
2023-05-27T02:18:14.156Z,7.90
2023-05-27T02:20:44.322Z,7.90
2023-05-27T02:23:13.945Z,7.80
2023-05-27T02:25:43.479Z,7.80
2023-05-27T02:28:14.013Z,7.70
2023-05-27T02:30:43.598Z,7.60
2023-05-27T02:33:13.184Z,7.60
2023-05-27T02:35:42.794Z,7.60
2023-05-27T02:38:12.327Z,7.60
2023-05-27T02:40:41.737Z,7.60
2023-05-27T02:43:11.826Z,7.70
2023-05-27T02:45:41.312Z,7.70
2023-05-27T02:48:10.855Z,7.70
2023-05-27T02:50:40.352Z,7.60
2023-05-27T02:53:09.806Z,7.60
2023-05-27T02:55:39.432Z,7.60
2023-05-27T02:58:09.123Z,7.50
2023-05-27T03:00:38.640Z,7.50
2023-05-27T03:03:09.148Z,7.50
2023-05-27T03:05:38.876Z,7.50
2023-05-27T03:08:08.464Z,7.50
2023-05-27T03:10:38.132Z,7.40
2023-05-27T03:13:07.647Z,7.40
2023-05-27T03:15:37.088Z,7.40
2023-05-27T03:18:07.392Z,7.40
2023-05-27T03:20:36.909Z,7.40
2023-05-27T03:23:06.771Z,7.40
2023-05-27T03:25:36.327Z,7.40
2023-05-27T03:28:06.039Z,7.30
2023-05-27T03:30:36.355Z,7.30
2023-05-27T03:33:06.494Z,7.30
2023-05-27T03:35:37.703Z,7.40
2023-05-27T03:38:07.385Z,7.40
2023-05-27T03:40:36.857Z,7.40
2023-05-27T03:43:08.109Z,7.40
2023-05-27T03:45:37.735Z,7.40
2023-05-27T03:48:07.552Z,7.40
2023-05-27T03:50:37.084Z,7.50
2023-05-27T03:53:06.752Z,7.60
2023-05-27T03:55:36.538Z,7.60
2023-05-27T03:58:05.963Z,7.60
2023-05-27T04:00:36.541Z,7.70
2023-05-27T04:03:07.857Z,7.70
2023-05-27T04:05:37.867Z,7.80
2023-05-27T04:08:07.541Z,7.80
2023-05-27T04:10:36.976Z,7.90
2023-05-27T04:13:06.481Z,7.90
2023-05-27T04:15:36.779Z,8.00
2023-05-27T04:18:07.598Z,8.10
2023-05-27T04:20:41.398Z,8.20
2023-05-27T04:23:11.907Z,8.30
2023-05-27T04:25:40.749Z,8.40
2023-05-27T04:28:12.058Z,8.40
2023-05-27T04:30:43.341Z,8.50
2023-05-27T04:33:18.083Z,8.60
2023-05-27T04:35:48.823Z,8.70
2023-05-27T04:38:21.107Z,8.80
2023-05-27T04:40:56.378Z,9.00
2023-05-27T04:43:39.833Z,9.00
2023-05-27T04:46:09.458Z,9.10
2023-05-27T04:48:39.034Z,9.20
2023-05-27T04:51:08.549Z,9.30
2023-05-27T04:53:38.043Z,9.40
2023-05-27T04:56:09.399Z,9.50
2023-05-27T04:58:40.583Z,9.70
2023-05-27T05:01:11.824Z,9.80
2023-05-27T05:03:42.887Z,9.90
2023-05-27T05:06:12.734Z,10.10
2023-05-27T05:08:42.344Z,10.20
2023-05-27T05:11:11.929Z,10.40
2023-05-27T05:13:41.526Z,10.50
2023-05-27T05:16:11.514Z,10.70
2023-05-27T05:18:41.349Z,10.80
2023-05-27T05:21:10.860Z,11.00
2023-05-27T05:23:42.466Z,11.10
2023-05-27T05:26:11.948Z,11.30
2023-05-27T05:28:42.970Z,11.50
2023-05-27T05:31:12.508Z,11.70
2023-05-27T05:33:41.895Z,11.80
2023-05-27T05:36:11.504Z,12.00
2023-05-27T05:38:45.626Z,12.10
2023-05-27T05:41:15.611Z,12.30
2023-05-27T05:43:45.492Z,12.40
2023-05-27T05:46:15.797Z,12.50
2023-05-27T05:48:45.447Z,12.70
2023-05-27T05:51:16.844Z,12.80
2023-05-27T05:53:48.063Z,13.00
2023-05-27T05:56:17.625Z,13.10
2023-05-27T05:58:47.134Z,13.30
2023-05-27T06:01:17.947Z,13.40
2023-05-27T06:03:46.910Z,13.60
2023-05-27T06:06:18.172Z,13.70
2023-05-27T06:09:06.416Z,13.90
2023-05-27T06:11:36.115Z,14.20
2023-05-27T06:14:05.971Z,14.20
2023-05-27T06:16:40.049Z,14.30
2023-05-27T06:19:09.723Z,14.40
2023-05-27T06:21:39.318Z,14.70
2023-05-27T06:24:10.548Z,14.90
2023-05-27T06:26:41.713Z,15.10
2023-05-27T06:29:11.236Z,15.20
2023-05-27T06:31:40.708Z,15.50
2023-05-27T06:34:10.218Z,15.60
2023-05-27T06:36:39.689Z,15.90
2023-05-27T06:39:10.022Z,16.10
2023-05-27T06:41:40.110Z,16.20
2023-05-27T06:44:27.701Z,16.50
2023-05-27T06:47:03.126Z,16.60
2023-05-27T06:49:33.244Z,16.80
2023-05-27T06:52:07.348Z,17.00
2023-05-27T06:54:39.049Z,17.10
2023-05-27T06:57:13.296Z,17.30
2023-05-27T06:59:50.469Z,17.50
2023-05-27T07:02:20.056Z,17.70
2023-05-27T07:04:49.656Z,17.80
2023-05-27T07:07:19.603Z,17.90
2023-05-27T07:09:49.280Z,18.10
2023-05-27T07:12:19.232Z,18.10
2023-05-27T07:14:50.517Z,18.30
2023-05-27T07:17:20.164Z,18.50
2023-05-27T07:19:49.981Z,18.60
2023-05-27T07:22:21.275Z,18.70
2023-05-27T07:24:50.973Z,18.80
2023-05-27T07:27:21.760Z,19.00
2023-05-27T07:29:53.032Z,19.10
2023-05-27T07:32:24.402Z,19.20
2023-05-27T07:34:54.323Z,19.20
2023-05-27T07:37:26.627Z,19.30
2023-05-27T07:39:56.110Z,19.40
2023-05-27T07:42:26.279Z,19.50
2023-05-27T07:44:56.434Z,19.60
2023-05-27T07:47:26.524Z,19.60
2023-05-27T07:49:56.043Z,19.70
2023-05-27T07:52:43.938Z,19.90
2023-05-27T07:55:24.437Z,20.00
2023-05-27T07:57:54.749Z,20.20
2023-05-27T08:00:25.132Z,20.20
2023-05-27T08:02:56.823Z,20.20
2023-05-27T08:05:44.544Z,20.40
2023-05-27T08:08:16.258Z,20.50
2023-05-27T08:10:59.729Z,20.60
2023-05-27T08:13:30.941Z,20.70
2023-05-27T08:16:02.121Z,20.80
2023-05-27T08:18:39.474Z,20.90
2023-05-27T08:21:10.580Z,21.00
2023-05-27T08:23:41.803Z,21.00
2023-05-27T08:26:15.745Z,21.00
2023-05-27T08:28:49.741Z,21.10
2023-05-27T08:31:32.933Z,21.20
2023-05-27T08:34:04.285Z,21.30
2023-05-27T08:36:35.451Z,21.20
2023-05-27T08:39:06.205Z,21.20
2023-05-27T08:41:38.314Z,21.30
2023-05-27T08:46:39.523Z,21.00
2023-05-27T08:49:09.155Z,21.10
2023-05-27T08:51:41.240Z,21.20
2023-05-27T08:54:11.279Z,21.10
2023-05-27T08:56:42.183Z,21.10
2023-05-27T08:59:14.028Z,21.10
2023-05-27T09:01:44.764Z,21.10
2023-05-27T09:04:15.380Z,20.80
2023-05-27T09:06:44.980Z,20.70
2023-05-27T09:09:14.683Z,20.50
2023-05-27T09:11:44.455Z,20.40
2023-05-27T09:14:23.427Z,20.20
2023-05-27T09:16:52.968Z,20.10
2023-05-27T09:19:22.784Z,20.00
2023-05-27T09:21:54.417Z,20.10
2023-05-27T09:24:25.562Z,20.10
2023-05-27T09:26:56.505Z,20.00
2023-05-27T09:29:27.057Z,19.90
2023-05-27T09:31:57.622Z,19.80
2023-05-27T09:34:28.906Z,19.80
2023-05-27T09:36:59.765Z,19.90
2023-05-27T09:39:29.247Z,20.00
2023-05-27T09:42:00.147Z,20.00
2023-05-27T09:44:37.369Z,20.00
2023-05-27T09:47:07.248Z,20.00
2023-05-27T09:49:39.623Z,20.10
2023-05-27T09:52:11.784Z,20.30
2023-05-27T09:54:41.517Z,20.30
2023-05-27T09:57:12.605Z,20.20
2023-05-27T09:59:43.351Z,20.10
2023-05-27T10:02:15.801Z,20.20
2023-05-27T10:04:46.383Z,20.30
2023-05-27T10:07:18.542Z,20.60
2023-05-27T10:09:49.274Z,20.80
2023-05-27T10:12:19.279Z,20.80
2023-05-27T10:14:50.134Z,20.80
2023-05-27T10:17:19.577Z,20.90
2023-05-27T10:19:57.589Z,20.80
2023-05-27T10:22:27.170Z,20.60
2023-05-27T10:24:56.695Z,20.40
2023-05-27T10:27:26.149Z,20.30
2023-05-27T10:30:01.615Z,20.10
2023-05-27T10:32:31.320Z,20.00
2023-05-27T10:35:01.661Z,19.90
2023-05-27T10:37:31.828Z,19.90
2023-05-27T10:40:01.758Z,19.80
2023-05-27T10:42:31.242Z,19.80
2023-05-27T10:45:08.692Z,19.80
2023-05-27T10:47:38.675Z,20.00
2023-05-27T10:50:15.671Z,20.20
2023-05-27T10:52:45.144Z,20.40
2023-05-27T10:55:15.202Z,20.50
2023-05-27T10:57:44.624Z,20.50
2023-05-27T11:00:17.973Z,20.60
2023-05-27T11:02:48.780Z,20.60
2023-05-27T11:05:19.786Z,20.70
2023-05-27T11:07:49.182Z,20.80
2023-05-27T11:10:18.862Z,20.80
2023-05-27T11:12:49.523Z,20.90
2023-05-27T11:15:20.850Z,20.80
2023-05-27T11:17:50.644Z,20.80
2023-05-27T11:20:20.262Z,20.60
2023-05-27T11:22:53.091Z,20.40
2023-05-27T11:25:22.534Z,20.30
2023-05-27T11:27:52.035Z,20.30
2023-05-27T11:30:28.284Z,20.30
2023-05-27T11:33:04.109Z,20.30
2023-05-27T11:35:32.713Z,20.40
2023-05-27T11:38:03.335Z,20.40
2023-05-27T11:40:39.872Z,20.30
2023-05-27T11:43:09.333Z,20.20
2023-05-27T11:45:39.601Z,20.20
2023-05-27T11:48:10.691Z,20.10
2023-05-27T11:50:40.254Z,20.10
2023-05-27T11:53:09.748Z,20.10
2023-05-27T11:55:40.885Z,20.20
2023-05-27T11:58:10.448Z,20.30
2023-05-27T12:00:39.869Z,20.30
2023-05-27T12:03:09.511Z,20.30
2023-05-27T12:05:39.157Z,20.30
2023-05-27T12:08:08.724Z,20.10
2023-05-27T12:10:38.195Z,20.10
2023-05-27T12:13:08.306Z,20.00
2023-05-27T12:15:37.819Z,19.90
2023-05-27T12:18:07.729Z,19.90
2023-05-27T12:20:37.301Z,19.90
2023-05-27T12:23:06.793Z,19.90
2023-05-27T12:25:36.270Z,19.90
2023-05-27T12:28:07.658Z,19.90
2023-05-27T12:30:38.159Z,19.90
2023-05-27T12:33:08.408Z,19.70
2023-05-27T12:35:37.186Z,19.60
2023-05-27T12:38:06.549Z,19.60
2023-05-27T12:40:35.990Z,19.60
2023-05-27T12:43:06.272Z,19.50
2023-05-27T12:45:35.905Z,19.50
2023-05-27T12:48:05.544Z,19.40
2023-05-27T12:50:35.209Z,19.30
2023-05-27T12:53:06.084Z,19.30
2023-05-27T12:55:36.262Z,19.30
2023-05-27T12:58:05.884Z,19.30
2023-05-27T13:00:35.555Z,19.30
2023-05-27T13:03:05.351Z,19.30
2023-05-27T13:05:34.905Z,19.30
2023-05-27T13:08:08.566Z,19.30
2023-05-27T13:10:38.211Z,19.20
2023-05-27T13:13:07.850Z,19.20
2023-05-27T13:15:38.251Z,19.30
2023-05-27T13:18:07.891Z,19.30
2023-05-27T13:20:37.893Z,19.30
2023-05-27T13:23:07.435Z,19.20
2023-05-27T13:25:36.944Z,19.20
2023-05-27T13:28:06.466Z,19.20
2023-05-27T13:30:36.003Z,19.20
2023-05-27T13:33:05.828Z,19.30
2023-05-27T13:35:35.289Z,19.30
2023-05-27T13:38:06.441Z,19.30
2023-05-27T13:40:35.844Z,19.30
2023-05-27T13:43:05.348Z,19.30
2023-05-27T13:45:34.830Z,19.30
2023-05-27T13:48:04.481Z,19.20
2023-05-27T13:50:34.030Z,19.20
2023-05-27T13:53:03.552Z,19.30
2023-05-27T13:55:33.142Z,19.20
2023-05-27T13:58:03.420Z,19.20
2023-05-27T14:00:32.118Z,19.30
2023-05-27T14:03:01.801Z,19.30
2023-05-27T14:05:31.243Z,19.40
2023-05-27T14:08:02.370Z,19.40
2023-05-27T14:10:35.172Z,19.40
2023-05-27T14:13:06.012Z,19.50
2023-05-27T14:15:36.455Z,19.40
2023-05-27T14:18:06.713Z,19.40
2023-05-27T14:20:39.698Z,19.30
2023-05-27T14:23:10.632Z,19.30
2023-05-27T14:25:40.880Z,19.30
2023-05-27T14:28:10.747Z,19.30
2023-05-27T14:30:40.363Z,19.30
2023-05-27T14:33:11.140Z,19.20
2023-05-27T14:35:41.708Z,19.20
2023-05-27T14:38:11.471Z,19.30
2023-05-27T14:40:41.063Z,19.30
2023-05-27T14:43:10.462Z,19.30
2023-05-27T14:45:40.202Z,19.30
2023-05-27T14:48:09.767Z,19.30
2023-05-27T14:50:39.277Z,19.30
2023-05-27T14:53:08.763Z,19.40
2023-05-27T14:55:38.358Z,19.40
2023-05-27T14:58:07.957Z,19.40
2023-05-27T15:00:37.466Z,19.40
2023-05-27T15:03:06.945Z,19.40
2023-05-27T15:05:36.941Z,19.50
2023-05-27T15:08:08.047Z,19.50
2023-05-27T15:10:37.685Z,19.50
2023-05-27T15:13:07.094Z,19.40
2023-05-27T15:15:38.240Z,19.40
2023-05-27T15:18:08.886Z,19.40
2023-05-27T15:20:38.679Z,19.40
2023-05-27T15:23:08.280Z,19.40
2023-05-27T15:25:38.186Z,19.50
2023-05-27T15:28:07.746Z,19.40
2023-05-27T15:30:37.196Z,19.40
2023-05-27T15:33:06.959Z,19.40
2023-05-27T15:35:36.875Z,19.40
2023-05-27T15:38:06.407Z,19.50
2023-05-27T15:40:37.501Z,19.50
2023-05-27T15:43:06.988Z,19.40
2023-05-27T15:45:39.348Z,19.40
2023-05-27T15:48:11.055Z,19.40
2023-05-27T15:50:43.174Z,19.40
2023-05-27T15:53:12.585Z,19.30
2023-05-27T15:55:42.982Z,19.40
2023-05-27T15:58:11.585Z,19.40
2023-05-27T16:00:41.194Z,19.40
2023-05-27T16:03:10.723Z,19.30
2023-05-27T16:05:40.260Z,19.30
2023-05-27T16:08:09.970Z,19.30
2023-05-27T16:10:52.763Z,19.20
2023-05-27T16:13:26.427Z,19.20
2023-05-27T16:15:56.826Z,19.20
2023-05-27T16:18:25.671Z,19.20
2023-05-27T16:20:55.435Z,19.10
2023-05-27T16:23:25.429Z,19.10
2023-05-27T16:25:54.978Z,19.10
2023-05-27T16:28:24.509Z,19.10
2023-05-27T16:30:54.541Z,19.10
2023-05-27T16:33:24.250Z,19.00
2023-05-27T16:35:54.858Z,19.00
2023-05-27T16:38:24.372Z,18.90
2023-05-27T16:40:53.960Z,18.90
2023-05-27T16:43:23.541Z,18.90
2023-05-27T16:45:53.220Z,18.80
2023-05-27T16:48:22.890Z,18.80
2023-05-27T16:50:52.536Z,18.80
2023-05-27T16:53:22.115Z,18.70
2023-05-27T16:55:51.711Z,18.70
2023-05-27T16:58:21.433Z,18.70
2023-05-27T17:01:01.985Z,18.70
2023-05-27T17:03:31.839Z,18.70
2023-05-27T17:06:01.582Z,18.60
2023-05-27T17:08:31.021Z,18.60
2023-05-27T17:11:00.427Z,18.50
2023-05-27T17:13:29.914Z,18.60
2023-05-27T17:15:59.588Z,18.50
2023-05-27T17:18:29.033Z,18.50
2023-05-27T17:20:58.631Z,18.40
2023-05-27T17:23:28.287Z,18.40
2023-05-27T17:25:57.767Z,18.30
2023-05-27T17:28:27.247Z,18.30
2023-05-27T17:30:56.965Z,18.30
2023-05-27T17:33:26.382Z,18.20
2023-05-27T17:35:55.952Z,18.20
2023-05-27T17:38:27.217Z,18.10
2023-05-27T17:40:57.349Z,18.10
2023-05-27T17:43:27.158Z,18.10
2023-05-27T17:45:58.026Z,18.00
2023-05-27T17:48:27.588Z,18.00
2023-05-27T17:50:57.570Z,18.00
2023-05-27T17:53:27.158Z,17.90
2023-05-27T17:55:56.666Z,17.90
2023-05-27T17:58:26.244Z,17.80
2023-05-27T18:00:56.296Z,17.70
2023-05-27T18:03:26.191Z,17.70
2023-05-27T18:05:55.845Z,17.60
2023-05-27T18:08:25.462Z,17.60
2023-05-27T18:10:54.994Z,17.60
2023-05-27T18:13:24.501Z,17.50
2023-05-27T18:15:55.646Z,17.40
2023-05-27T18:18:25.191Z,17.40
2023-05-27T18:20:56.481Z,17.30
2023-05-27T18:23:25.992Z,17.30
2023-05-27T18:25:55.442Z,17.20
2023-05-27T18:28:25.036Z,17.20
2023-05-27T18:30:54.537Z,17.10
2023-05-27T18:33:24.203Z,17.10
2023-05-27T18:35:53.700Z,17.00
2023-05-27T18:38:23.254Z,17.00
2023-05-27T18:40:53.606Z,16.90
2023-05-27T18:43:22.442Z,16.80
2023-05-27T18:45:59.748Z,16.80
2023-05-27T18:48:31.311Z,16.70
2023-05-27T18:51:01.364Z,16.70
2023-05-27T18:53:30.796Z,16.60
2023-05-27T18:56:00.282Z,16.50
2023-05-27T18:58:29.747Z,16.50
2023-05-27T19:00:59.159Z,16.40
2023-05-27T19:03:28.743Z,16.30
2023-05-27T19:05:58.221Z,16.20
2023-05-27T19:08:28.625Z,16.20
2023-05-27T19:10:58.149Z,16.10
2023-05-27T19:13:27.719Z,16.00
2023-05-27T19:15:57.366Z,16.00
2023-05-27T19:18:27.329Z,15.90
2023-05-27T19:20:56.886Z,15.90
2023-05-27T19:23:26.409Z,15.80
2023-05-27T19:25:55.987Z,15.70
2023-05-27T19:28:25.636Z,15.70
2023-05-27T19:30:57.167Z,15.70
2023-05-27T19:33:26.576Z,15.60
2023-05-27T19:35:57.731Z,15.50
2023-05-27T19:38:27.284Z,15.50
2023-05-27T19:40:58.442Z,15.40
2023-05-27T19:43:28.221Z,15.40
2023-05-27T19:45:57.766Z,15.30
2023-05-27T19:48:27.184Z,15.30
2023-05-27T19:50:57.216Z,15.30
2023-05-27T19:53:33.183Z,15.20
2023-05-27T19:56:04.343Z,15.20
2023-05-27T19:58:34.659Z,15.10
2023-05-27T20:01:04.045Z,15.10
2023-05-27T20:03:33.667Z,15.00
2023-05-27T20:06:03.198Z,15.00
2023-05-27T20:08:33.003Z,14.90
2023-05-27T20:11:03.097Z,14.90
2023-05-27T20:13:32.556Z,14.80
2023-05-27T20:16:02.156Z,14.70
2023-05-27T20:18:32.019Z,14.70
2023-05-27T20:21:01.482Z,14.60
2023-05-27T20:23:30.904Z,14.60
2023-05-27T20:26:00.531Z,14.50
2023-05-27T20:28:30.020Z,14.50
2023-05-27T20:30:59.650Z,14.40
2023-05-27T20:33:29.037Z,14.30
2023-05-27T20:35:58.490Z,14.30
2023-05-27T20:38:28.023Z,14.30
2023-05-27T20:40:57.512Z,14.20
2023-05-27T20:43:26.919Z,14.10
2023-05-27T20:45:56.652Z,14.00
2023-05-27T20:48:26.118Z,14.00
2023-05-27T20:50:55.870Z,13.90
2023-05-27T20:53:25.341Z,13.90
2023-05-27T20:55:54.884Z,13.80
2023-05-27T20:58:25.508Z,13.80
2023-05-27T21:00:55.294Z,13.70
2023-05-27T21:03:24.963Z,13.70
2023-05-27T21:05:54.623Z,13.60
2023-05-27T21:08:24.202Z,13.50
2023-05-27T21:10:54.003Z,13.50
2023-05-27T21:13:23.572Z,13.40
2023-05-27T21:15:53.180Z,13.40
2023-05-27T21:18:22.825Z,13.40
2023-05-27T21:20:52.595Z,13.30
2023-05-27T21:23:23.817Z,13.30
2023-05-27T21:25:54.243Z,13.20
2023-05-27T21:28:23.710Z,13.20
2023-05-27T21:30:53.561Z,13.10
2023-05-27T21:33:23.270Z,13.10
2023-05-27T21:35:53.295Z,13.00
2023-05-27T21:38:23.873Z,13.00
2023-05-27T21:40:52.550Z,12.90
2023-05-27T21:43:21.911Z,12.90
2023-05-27T21:45:51.574Z,12.80
2023-05-27T21:48:21.525Z,12.70
2023-05-27T21:50:51.232Z,12.70
2023-05-27T21:53:20.677Z,12.60
2023-05-27T21:55:50.085Z,12.60
2023-05-27T21:58:19.638Z,12.60
2023-05-27T22:00:49.121Z,12.50
2023-05-27T22:03:18.818Z,12.50
2023-05-27T22:05:49.823Z,12.50
2023-05-27T22:08:19.348Z,12.40
2023-05-27T22:10:49.696Z,12.40
2023-05-27T22:13:18.368Z,12.30
2023-05-27T22:15:49.476Z,12.30
2023-05-27T22:18:19.068Z,12.20
2023-05-27T22:20:48.590Z,12.20
2023-05-27T22:23:19.394Z,12.20
2023-05-27T22:25:48.799Z,12.10
2023-05-27T22:28:18.322Z,12.00
2023-05-27T22:30:47.809Z,12.00
2023-05-27T22:33:17.392Z,11.90
2023-05-27T22:35:46.806Z,11.90
2023-05-27T22:38:16.395Z,11.90
2023-05-27T22:40:45.871Z,11.80
2023-05-27T22:43:15.395Z,11.80
2023-05-27T22:45:44.936Z,11.80
2023-05-27T22:48:14.428Z,11.70
2023-05-27T22:50:43.798Z,11.60
2023-05-27T22:53:13.245Z,11.60
2023-05-27T22:55:42.651Z,11.50
2023-05-27T22:58:12.167Z,11.40
2023-05-27T23:00:41.573Z,11.40
2023-05-27T23:03:13.048Z,11.30
2023-05-27T23:05:42.920Z,11.40
2023-05-27T23:08:12.438Z,11.30
2023-05-27T23:10:41.841Z,11.30
2023-05-27T23:13:11.304Z,11.30
2023-05-27T23:15:40.765Z,11.30
2023-05-27T23:18:10.371Z,11.20
2023-05-27T23:20:39.936Z,11.20
2023-05-27T23:23:09.486Z,11.20
2023-05-27T23:25:39.130Z,11.20
2023-05-27T23:28:09.391Z,11.10
2023-05-27T23:30:38.868Z,11.10
2023-05-27T23:33:08.442Z,11.00
2023-05-27T23:35:37.886Z,11.00
2023-05-27T23:38:07.322Z,11.00
2023-05-27T23:40:37.572Z,11.00
2023-05-27T23:43:07.088Z,11.00
2023-05-27T23:45:36.681Z,10.90
2023-05-27T23:48:06.314Z,10.90
2023-05-27T23:50:35.818Z,10.80
2023-05-27T23:53:05.506Z,10.80
2023-05-27T23:55:34.932Z,10.70
2023-05-27T23:58:04.446Z,10.60
